sensor_id;sensor_type;location;lat;lon;timestamp;pressure;altitude;pressure_sealevel;temperature;humidity
61573;BME280;47465;43.094;12.434;2023-04-09T00:00:16;98765.88;;;8.02;78.29
61573;BME280;47465;43.094;12.434;2023-04-09T00:02:42;98776.53;;;7.99;78.42
61573;BME280;47465;43.094;12.434;2023-04-09T00:05:08;98788.75;;;8.08;78.22
61573;BME280;47465;43.094;12.434;2023-04-09T00:07:34;98787.81;;;8.10;78.15
61573;BME280;47465;43.094;12.434;2023-04-09T00:10:00;98778.28;;;8.00;78.40
61573;BME280;47465;43.094;12.434;2023-04-09T00:12:26;98770.38;;;7.98;78.79
61573;BME280;47465;43.094;12.434;2023-04-09T00:14:55;98762.56;;;7.89;78.75
61573;BME280;47465;43.094;12.434;2023-04-09T00:17:22;98784.47;;;8.00;78.84
61573;BME280;47465;43.094;12.434;2023-04-09T00:19:48;98792.28;;;8.08;79.17
61573;BME280;47465;43.094;12.434;2023-04-09T00:22:14;98804.53;;;8.14;78.81
61573;BME280;47465;43.094;12.434;2023-04-09T00:24:40;98818.66;;;8.13;78.76
61573;BME280;47465;43.094;12.434;2023-04-09T00:27:06;98794.13;;;8.03;79.02
61573;BME280;47465;43.094;12.434;2023-04-09T00:29:32;98775.94;;;7.83;79.02
61573;BME280;47465;43.094;12.434;2023-04-09T00:31:58;98805.66;;;8.00;79.54
61573;BME280;47465;43.094;12.434;2023-04-09T00:34:25;98789.09;;;7.86;79.49
61573;BME280;47465;43.094;12.434;2023-04-09T00:36:52;98761.25;;;7.62;79.90
61573;BME280;47465;43.094;12.434;2023-04-09T00:39:18;98773.47;;;7.69;80.14
61573;BME280;47465;43.094;12.434;2023-04-09T00:41:44;98790.91;;;7.82;79.92
61573;BME280;47465;43.094;12.434;2023-04-09T00:44:10;98809.31;;;7.92;79.56
61573;BME280;47465;43.094;12.434;2023-04-09T00:46:36;98790.91;;;7.84;79.56
61573;BME280;47465;43.094;12.434;2023-04-09T00:49:02;98776.03;;;7.75;79.81
61573;BME280;47465;43.094;12.434;2023-04-09T00:51:30;98775.09;;;7.78;79.65
61573;BME280;47465;43.094;12.434;2023-04-09T00:53:56;98782.25;;;7.74;80.36
61573;BME280;47465;43.094;12.434;2023-04-09T00:56:23;98820.66;;;8.00;80.22
61573;BME280;47465;43.094;12.434;2023-04-09T00:58:51;98780.38;;;7.79;79.60
61573;BME280;47465;43.094;12.434;2023-04-09T01:01:17;98801.41;;;7.89;80.31
61573;BME280;47465;43.094;12.434;2023-04-09T01:03:42;98776.81;;;7.80;79.55
61573;BME280;47465;43.094;12.434;2023-04-09T01:06:16;98791.72;;;7.88;79.71
61573;BME280;47465;43.094;12.434;2023-04-09T01:09:03;98804.88;;;7.94;79.52
61573;BME280;47465;43.094;12.434;2023-04-09T01:11:34;98777.84;;;7.72;79.93
61573;BME280;47465;43.094;12.434;2023-04-09T01:14:05;98794.56;;;7.75;79.89
61573;BME280;47465;43.094;12.434;2023-04-09T01:16:35;98813.69;;;7.96;79.74
61573;BME280;47465;43.094;12.434;2023-04-09T01:19:11;98766.31;;;7.76;79.02
61573;BME280;47465;43.094;12.434;2023-04-09T01:21:44;98761.88;;;7.78;78.52
61573;BME280;47465;43.094;12.434;2023-04-09T01:24:18;98808.25;;;8.03;78.85
61573;BME280;47465;43.094;12.434;2023-04-09T01:26:53;98793.53;;;7.86;78.77
61573;BME280;47465;43.094;12.434;2023-04-09T01:29:24;98798.84;;;7.84;79.10
61573;BME280;47465;43.094;12.434;2023-04-09T01:31:51;98829.56;;;7.96;79.70
61573;BME280;47465;43.094;12.434;2023-04-09T01:34:19;98811.22;;;7.84;79.35
61573;BME280;47465;43.094;12.434;2023-04-09T01:36:48;98784.16;;;7.63;80.33
61573;BME280;47465;43.094;12.434;2023-04-09T01:39:15;98789.44;;;7.63;80.21
61573;BME280;47465;43.094;12.434;2023-04-09T01:41:42;98794.78;;;7.61;79.86
61573;BME280;47465;43.094;12.434;2023-04-09T01:44:08;98780.66;;;7.61;79.24
61573;BME280;47465;43.094;12.434;2023-04-09T01:46:38;98777.19;;;7.59;79.33
61573;BME280;47465;43.094;12.434;2023-04-09T01:49:05;98803.28;;;7.82;79.27
61573;BME280;47465;43.094;12.434;2023-04-09T01:51:31;98804.22;;;7.78;79.77
61573;BME280;47465;43.094;12.434;2023-04-09T01:53:58;98774.34;;;7.70;78.75
61573;BME280;47465;43.094;12.434;2023-04-09T01:56:24;98811.13;;;7.90;79.42
61573;BME280;47465;43.094;12.434;2023-04-09T01:58:50;98763.88;;;7.64;79.72
61573;BME280;47465;43.094;12.434;2023-04-09T02:01:22;98764.78;;;7.61;79.84
61573;BME280;47465;43.094;12.434;2023-04-09T02:03:55;98817.44;;;7.81;80.29
61573;BME280;47465;43.094;12.434;2023-04-09T02:06:25;98806.00;;;7.76;79.39
61573;BME280;47465;43.094;12.434;2023-04-09T02:08:54;98802.56;;;7.72;79.23
61573;BME280;47465;43.094;12.434;2023-04-09T02:11:25;98770.22;;;7.52;79.67
61573;BME280;47465;43.094;12.434;2023-04-09T02:13:54;98776.34;;;7.55;79.25
61573;BME280;47465;43.094;12.434;2023-04-09T02:16:22;98771.28;;;7.40;80.61
61573;BME280;47465;43.094;12.434;2023-04-09T02:18:53;98816.03;;;7.54;83.09
61573;BME280;47465;43.094;12.434;2023-04-09T02:21:21;98797.88;;;7.29;84.34
61573;BME280;47465;43.094;12.434;2023-04-09T02:23:47;98796.34;;;7.11;86.22
61573;BME280;47465;43.094;12.434;2023-04-09T02:26:13;98828.94;;;7.12;88.54
61573;BME280;47465;43.094;12.434;2023-04-09T02:28:39;98775.72;;;6.68;89.61
61573;BME280;47465;43.094;12.434;2023-04-09T02:31:05;98775.66;;;6.71;89.31
61573;BME280;47465;43.094;12.434;2023-04-09T02:33:31;98789.78;;;6.70;90.25
61573;BME280;47465;43.094;12.434;2023-04-09T02:35:59;98788.94;;;6.67;89.92
61573;BME280;47465;43.094;12.434;2023-04-09T02:38:25;98791.53;;;6.71;89.46
61573;BME280;47465;43.094;12.434;2023-04-09T02:40:51;98769.69;;;6.55;89.39
61573;BME280;47465;43.094;12.434;2023-04-09T02:43:17;98810.94;;;6.70;90.11
61573;BME280;47465;43.094;12.434;2023-04-09T02:45:43;98783.78;;;6.54;90.15
61573;BME280;47465;43.094;12.434;2023-04-09T02:48:09;98779.41;;;6.52;90.26
61573;BME280;47465;43.094;12.434;2023-04-09T02:50:35;98770.72;;;6.39;91.12
61573;BME280;47465;43.094;12.434;2023-04-09T02:53:03;98759.75;;;6.76;87.12
61573;BME280;47465;43.094;12.434;2023-04-09T02:55:29;98820.69;;;7.35;85.06
61573;BME280;47465;43.094;12.434;2023-04-09T02:57:55;98768.06;;;7.18;84.29
61573;BME280;47465;43.094;12.434;2023-04-09T03:00:21;98768.91;;;7.20;84.31
61573;BME280;47465;43.094;12.434;2023-04-09T03:02:47;98767.19;;;7.16;85.58
61573;BME280;47465;43.094;12.434;2023-04-09T03:05:13;98778.72;;;7.10;86.98
61573;BME280;47465;43.094;12.434;2023-04-09T03:07:39;98804.69;;;7.47;85.41
61573;BME280;47465;43.094;12.434;2023-04-09T03:10:08;98801.94;;;7.55;84.58
61573;BME280;47465;43.094;12.434;2023-04-09T03:12:34;98815.88;;;7.66;83.79
61573;BME280;47465;43.094;12.434;2023-04-09T03:15:00;98775.56;;;7.49;83.71
61573;BME280;47465;43.094;12.434;2023-04-09T03:17:26;98806.06;;;7.73;83.11
61573;BME280;47465;43.094;12.434;2023-04-09T03:19:53;98807.81;;;7.74;83.56
61573;BME280;47465;43.094;12.434;2023-04-09T03:22:19;98791.28;;;7.59;83.42
61573;BME280;47465;43.094;12.434;2023-04-09T03:24:45;98795.75;;;7.54;85.33
61573;BME280;47465;43.094;12.434;2023-04-09T03:27:14;98831.69;;;7.69;87.06
61573;BME280;47465;43.094;12.434;2023-04-09T03:29:40;98828.25;;;7.66;86.91
61573;BME280;47465;43.094;12.434;2023-04-09T03:32:06;98802.97;;;7.43;88.03
61573;BME280;47465;43.094;12.434;2023-04-09T03:34:32;98826.69;;;7.51;88.36
61573;BME280;47465;43.094;12.434;2023-04-09T03:36:58;98771.56;;;7.18;88.14
61573;BME280;47465;43.094;12.434;2023-04-09T03:39:24;98785.56;;;7.27;87.77
61573;BME280;47465;43.094;12.434;2023-04-09T03:41:50;98765.41;;;7.18;87.86
61573;BME280;47465;43.094;12.434;2023-04-09T03:44:18;98769.88;;;7.13;88.29
61573;BME280;47465;43.094;12.434;2023-04-09T03:46:44;98790.16;;;7.12;88.47
61573;BME280;47465;43.094;12.434;2023-04-09T03:49:09;98802.31;;;7.26;88.26
61573;BME280;47465;43.094;12.434;2023-04-09T03:51:36;98801.22;;;7.42;86.61
61573;BME280;47465;43.094;12.434;2023-04-09T03:54:02;98806.47;;;7.47;86.54
61573;BME280;47465;43.094;12.434;2023-04-09T03:56:28;98795.09;;;7.37;86.23
61573;BME280;47465;43.094;12.434;2023-04-09T03:58:54;98797.66;;;7.45;85.85
61573;BME280;47465;43.094;12.434;2023-04-09T04:01:21;98809.09;;;7.48;85.74
61573;BME280;47465;43.094;12.434;2023-04-09T04:03:47;98785.47;;;7.33;86.39
61573;BME280;47465;43.094;12.434;2023-04-09T04:06:13;98784.59;;;7.32;85.88
61573;BME280;47465;43.094;12.434;2023-04-09T04:08:39;98816.25;;;7.40;86.43
61573;BME280;47465;43.094;12.434;2023-04-09T04:11:05;98793.53;;;7.25;86.40
61573;BME280;47465;43.094;12.434;2023-04-09T04:13:31;98784.81;;;7.17;86.79
61573;BME280;47465;43.094;12.434;2023-04-09T04:15:57;98796.31;;;7.14;86.61
61573;BME280;47465;43.094;12.434;2023-04-09T04:18:25;98799.81;;;7.13;86.92
61573;BME280;47465;43.094;12.434;2023-04-09T04:20:52;98849.78;;;7.38;86.67
61573;BME280;47465;43.094;12.434;2023-04-09T04:23:18;98848.94;;;7.34;86.89
61573;BME280;47465;43.094;12.434;2023-04-09T04:25:44;98846.34;;;7.30;86.86
61573;BME280;47465;43.094;12.434;2023-04-09T04:28:10;98810.50;;;7.07;86.15
61573;BME280;47465;43.094;12.434;2023-04-09T04:30:36;98830.63;;;7.17;86.00
61573;BME280;47465;43.094;12.434;2023-04-09T04:33:02;98825.53;;;7.04;86.51
61573;BME280;47465;43.094;12.434;2023-04-09T04:35:30;98815.06;;;6.93;86.51
61573;BME280;47465;43.094;12.434;2023-04-09T04:37:56;98823.91;;;6.92;86.57
61573;BME280;47465;43.094;12.434;2023-04-09T04:40:22;98821.22;;;6.96;85.68
61573;BME280;47465;43.094;12.434;2023-04-09T04:42:48;98807.94;;;6.98;84.94
61573;BME280;47465;43.094;12.434;2023-04-09T04:45:14;98824.59;;;7.06;84.92
61573;BME280;47465;43.094;12.434;2023-04-09T04:47:40;98823.63;;;7.15;83.64
61573;BME280;47465;43.094;12.434;2023-04-09T04:50:07;98856.94;;;7.31;83.87
61573;BME280;47465;43.094;12.434;2023-04-09T04:52:35;98850.84;;;7.22;84.27
61573;BME280;47465;43.094;12.434;2023-04-09T04:55:01;98827.25;;;7.05;84.79
61573;BME280;47465;43.094;12.434;2023-04-09T04:57:27;98859.69;;;7.20;84.24
61573;BME280;47465;43.094;12.434;2023-04-09T04:59:53;98835.22;;;7.03;84.58
61573;BME280;47465;43.094;12.434;2023-04-09T05:02:19;98874.59;;;7.28;85.02
61573;BME280;47465;43.094;12.434;2023-04-09T05:04:45;98870.28;;;7.20;85.64
61573;BME280;47465;43.094;12.434;2023-04-09T05:07:11;98858.00;;;7.13;86.16
61573;BME280;47465;43.094;12.434;2023-04-09T05:09:38;98846.59;;;7.10;86.20
61573;BME280;47465;43.094;12.434;2023-04-09T05:12:07;98843.97;;;7.07;85.87
61573;BME280;47465;43.094;12.434;2023-04-09T05:14:34;98877.22;;;7.31;86.08
61573;BME280;47465;43.094;12.434;2023-04-09T05:16:59;98888.50;;;7.45;86.00
61573;BME280;47465;43.094;12.434;2023-04-09T05:19:25;98876.19;;;7.41;85.86
61573;BME280;47465;43.094;12.434;2023-04-09T05:21:51;98872.63;;;7.44;85.15
61573;BME280;47465;43.094;12.434;2023-04-09T05:24:17;98856.81;;;7.39;85.14
61573;BME280;47465;43.094;12.434;2023-04-09T05:26:45;98875.19;;;7.51;84.67
61573;BME280;47465;43.094;12.434;2023-04-09T05:29:11;98878.63;;;7.56;84.95
61573;BME280;47465;43.094;12.434;2023-04-09T05:31:37;98884.69;;;7.68;84.61
61573;BME280;47465;43.094;12.434;2023-04-09T05:34:05;98862.75;;;7.56;84.74
61573;BME280;47465;43.094;12.434;2023-04-09T05:36:31;98894.44;;;7.63;85.31
61573;BME280;47465;43.094;12.434;2023-04-09T05:38:57;98884.00;;;7.50;85.52
61573;BME280;47465;43.094;12.434;2023-04-09T05:41:23;98888.34;;;7.59;85.18
61573;BME280;47465;43.094;12.434;2023-04-09T05:43:50;98918.97;;;7.75;85.54
61573;BME280;47465;43.094;12.434;2023-04-09T05:46:16;98888.34;;;7.56;85.86
61573;BME280;47465;43.094;12.434;2023-04-09T05:48:42;98908.38;;;7.75;85.70
61573;BME280;47465;43.094;12.434;2023-04-09T05:51:09;98887.34;;;7.65;85.84
61573;BME280;47465;43.094;12.434;2023-04-09T05:53:35;98888.22;;;7.65;86.06
61573;BME280;47465;43.094;12.434;2023-04-09T05:56:01;98930.28;;;7.88;86.33
61573;BME280;47465;43.094;12.434;2023-04-09T05:58:27;98932.09;;;7.85;86.31
61573;BME280;47465;43.094;12.434;2023-04-09T06:00:55;98936.50;;;7.84;86.81
61573;BME280;47465;43.094;12.434;2023-04-09T06:03:21;98957.59;;;7.92;87.16
61573;BME280;47465;43.094;12.434;2023-04-09T06:05:47;98944.47;;;7.82;87.01
61573;BME280;47465;43.094;12.434;2023-04-09T06:08:13;98905.81;;;7.69;87.43
61573;BME280;47465;43.094;12.434;2023-04-09T06:10:39;98900.72;;;7.54;87.73
61573;BME280;47465;43.094;12.434;2023-04-09T06:13:05;98917.44;;;7.59;89.11
61573;BME280;47465;43.094;12.434;2023-04-09T06:15:31;98919.25;;;7.55;88.67
61573;BME280;47465;43.094;12.434;2023-04-09T06:17:58;98917.44;;;7.59;88.95
61573;BME280;47465;43.094;12.434;2023-04-09T06:20:24;98925.19;;;7.71;89.24
61573;BME280;47465;43.094;12.434;2023-04-09T06:22:50;98955.81;;;7.92;89.05
61573;BME280;47465;43.094;12.434;2023-04-09T06:25:16;98940.94;;;7.82;89.12
61573;BME280;47465;43.094;12.434;2023-04-09T06:27:42;98927.78;;;7.76;89.27
61573;BME280;47465;43.094;12.434;2023-04-09T06:30:09;98925.06;;;7.84;89.10
61573;BME280;47465;43.094;12.434;2023-04-09T06:32:35;98930.41;;;7.77;89.00
61573;BME280;47465;43.094;12.434;2023-04-09T06:35:04;98925.81;;;7.92;88.98
61573;BME280;47465;43.094;12.434;2023-04-09T06:37:30;98945.97;;;8.02;88.51
61573;BME280;47465;43.094;12.434;2023-04-09T06:39:56;98968.91;;;8.03;88.93
61573;BME280;47465;43.094;12.434;2023-04-09T06:42:22;98942.50;;;7.97;88.07
61573;BME280;47465;43.094;12.434;2023-04-09T06:44:48;98935.38;;;8.02;88.27
61573;BME280;47465;43.094;12.434;2023-04-09T06:47:14;98928.56;;;7.82;88.18
61573;BME280;47465;43.094;12.434;2023-04-09T06:49:40;98957.16;;;8.24;87.10
61573;BME280;47465;43.094;12.434;2023-04-09T06:52:07;98937.22;;;7.95;86.67
61573;BME280;47465;43.094;12.434;2023-04-09T06:54:33;98931.06;;;7.96;86.97
61573;BME280;47465;43.094;12.434;2023-04-09T06:57:00;98931.97;;;7.94;86.60
61573;BME280;47465;43.094;12.434;2023-04-09T06:59:26;98952.81;;;8.17;87.09
61573;BME280;47465;43.094;12.434;2023-04-09T07:02:11;98930.84;;;8.09;86.53
61573;BME280;47465;43.094;12.434;2023-04-09T07:04:59;98962.97;;;8.51;85.34
61573;BME280;47465;43.094;12.434;2023-04-09T07:07:40;98940.59;;;8.67;83.37
61573;BME280;47465;43.094;12.434;2023-04-09T07:10:27;98931.28;;;8.96;81.41
61573;BME280;47465;43.094;12.434;2023-04-09T07:13:13;98949.06;;;8.89;81.20
61573;BME280;47465;43.094;12.434;2023-04-09T07:15:48;98957.16;;;9.30;79.38
61573;BME280;47465;43.094;12.434;2023-04-09T07:18:40;98954.97;;;9.52;79.48
61573;BME280;47465;43.094;12.434;2023-04-09T07:21:26;98940.63;;;9.60;77.28
61573;BME280;47465;43.094;12.434;2023-04-09T07:24:17;98991.69;;;10.17;75.19
61573;BME280;47465;43.094;12.434;2023-04-09T07:26:55;98947.09;;;9.91;73.27
61573;BME280;47465;43.094;12.434;2023-04-09T07:29:36;98985.53;;;10.55;71.14
61573;BME280;47465;43.094;12.434;2023-04-09T07:32:17;98966.81;;;10.60;69.77
61573;BME280;47465;43.094;12.434;2023-04-09T07:43:34;98972.53;;;10.02;70.80
61573;BME280;47465;43.094;12.434;2023-04-09T08:10:18;98961.78;;;12.15;61.52
61573;BME280;47465;43.094;12.434;2023-04-09T08:20:23;98971.34;;;12.78;59.64
61573;BME280;47465;43.094;12.434;2023-04-09T08:26:14;98958.34;;;13.21;57.40
61573;BME280;47465;43.094;12.434;2023-04-09T08:28:59;98955.34;;;13.55;56.93
61573;BME280;47465;43.094;12.434;2023-04-09T08:31:31;98963.28;;;13.33;55.00
61573;BME280;47465;43.094;12.434;2023-04-09T08:33:58;98952.50;;;12.83;57.27
61573;BME280;47465;43.094;12.434;2023-04-09T08:36:29;99001.31;;;13.13;56.72
61573;BME280;47465;43.094;12.434;2023-04-09T08:38:59;98998.31;;;13.22;57.53
61573;BME280;47465;43.094;12.434;2023-04-09T08:41:38;98973.63;;;13.42;56.60
61573;BME280;47465;43.094;12.434;2023-04-09T08:44:18;98973.50;;;12.93;56.95
61573;BME280;47465;43.094;12.434;2023-04-09T08:46:55;98993.38;;;13.38;56.13
61573;BME280;47465;43.094;12.434;2023-04-09T08:49:21;98977.28;;;13.13;57.05
61573;BME280;47465;43.094;12.434;2023-04-09T08:52:07;98967.75;;;13.32;56.01
61573;BME280;47465;43.094;12.434;2023-04-09T08:54:35;98981.88;;;13.61;55.58
61573;BME280;47465;43.094;12.434;2023-04-09T08:58:23;98959.97;;;13.51;55.11
61573;BME280;47465;43.094;12.434;2023-04-09T09:10:01;98995.91;;;15.06;49.03
61573;BME280;47465;43.094;12.434;2023-04-09T09:16:31;98981.53;;;15.50;49.73
61573;BME280;47465;43.094;12.434;2023-04-09T09:18:59;98974.03;;;15.58;47.36
61573;BME280;47465;43.094;12.434;2023-04-09T09:21:35;98990.41;;;15.72;47.57
61573;BME280;47465;43.094;12.434;2023-04-09T09:32:11;98939.88;;;16.40;43.78
61573;BME280;47465;43.094;12.434;2023-04-09T09:46:42;98996.00;;;13.65;52.36
61573;BME280;47465;43.094;12.434;2023-04-09T09:53:00;98990.06;;;13.03;56.32
61573;BME280;47465;43.094;12.434;2023-04-09T10:02:54;98992.94;;;11.16;67.45
61573;BME280;47465;43.094;12.434;2023-04-09T10:05:51;98957.28;;;10.87;72.87
61573;BME280;47465;43.094;12.434;2023-04-09T10:08:59;99003.53;;;11.17;73.87
61573;BME280;47465;43.094;12.434;2023-04-09T10:12:00;98973.09;;;11.27;72.53
61573;BME280;47465;43.094;12.434;2023-04-09T10:18:58;98979.16;;;12.84;68.63
61573;BME280;47465;43.094;12.434;2023-04-09T10:21:42;98997.41;;;12.97;65.24
61573;BME280;47465;43.094;12.434;2023-04-09T10:28:47;98964.75;;;13.67;57.43
61573;BME280;47465;43.094;12.434;2023-04-09T10:47:02;98971.91;;;13.41;56.74
61573;BME280;47465;43.094;12.434;2023-04-09T10:49:42;98937.13;;;13.16;56.29
61573;BME280;47465;43.094;12.434;2023-04-09T10:52:18;98933.75;;;13.11;56.75
61573;BME280;47465;43.094;12.434;2023-04-09T10:55:36;98962.84;;;14.17;55.92
61573;BME280;47465;43.094;12.434;2023-04-09T10:58:06;98912.97;;;14.38;54.70
61573;BME280;47465;43.094;12.434;2023-04-09T11:00:48;98917.84;;;14.51;51.10
61573;BME280;47465;43.094;12.434;2023-04-09T11:03:23;98952.94;;;14.87;51.99
61573;BME280;47465;43.094;12.434;2023-04-09T11:05:58;98895.19;;;14.82;52.22
61573;BME280;47465;43.094;12.434;2023-04-09T11:08:28;98911.53;;;14.52;53.61
61573;BME280;47465;43.094;12.434;2023-04-09T11:11:24;98923.69;;;13.19;53.76
61573;BME280;47465;43.094;12.434;2023-04-09T11:14:17;98961.47;;;13.33;53.01
61573;BME280;47465;43.094;12.434;2023-04-09T11:16:58;98922.38;;;13.31;53.25
61573;BME280;47465;43.094;12.434;2023-04-09T11:19:42;98938.00;;;13.43;53.00
61573;BME280;47465;43.094;12.434;2023-04-09T11:22:21;98937.69;;;13.26;54.30
61573;BME280;47465;43.094;12.434;2023-04-09T11:25:03;98908.00;;;13.10;51.85
61573;BME280;47465;43.094;12.434;2023-04-09T11:27:36;98947.59;;;13.22;54.59
61573;BME280;47465;43.094;12.434;2023-04-09T11:30:06;98931.00;;;12.87;53.51
61573;BME280;47465;43.094;12.434;2023-04-09T11:32:36;98952.84;;;12.99;54.12
61573;BME280;47465;43.094;12.434;2023-04-09T11:38:14;98955.34;;;13.03;55.05
61573;BME280;47465;43.094;12.434;2023-04-09T11:40:48;98951.94;;;13.25;55.16
61573;BME280;47465;43.094;12.434;2023-04-09T11:43:29;98924.69;;;13.42;54.93
61573;BME280;47465;43.094;12.434;2023-04-09T11:45:59;98944.97;;;13.47;56.45
61573;BME280;47465;43.094;12.434;2023-04-09T11:48:47;98968.97;;;13.49;57.26
61573;BME280;47465;43.094;12.434;2023-04-09T11:51:43;98914.41;;;13.04;60.41
61573;BME280;47465;43.094;12.434;2023-04-09T11:54:37;98935.56;;;13.61;62.37
61573;BME280;47465;43.094;12.434;2023-04-09T11:57:57;98945.50;;;13.57;54.14
61573;BME280;47465;43.094;12.434;2023-04-09T12:00:47;98915.91;;;13.11;53.62
61573;BME280;47465;43.094;12.434;2023-04-09T12:03:49;98975.81;;;13.04;54.62
61573;BME280;47465;43.094;12.434;2023-04-09T12:07:18;98937.41;;;12.82;55.26
61573;BME280;47465;43.094;12.434;2023-04-09T12:10:06;98968.16;;;13.47;52.43
61573;BME280;47465;43.094;12.434;2023-04-09T12:13:02;98911.63;;;13.81;53.31
61573;BME280;47465;43.094;12.434;2023-04-09T12:15:31;98913.16;;;13.88;50.06
61573;BME280;47465;43.094;12.434;2023-04-09T12:21:47;98915.06;;;14.30;48.87
61573;BME280;47465;43.094;12.434;2023-04-09T12:24:14;98941.78;;;14.54;46.66
61573;BME280;47465;43.094;12.434;2023-04-09T12:26:43;98924.97;;;14.28;47.96
61573;BME280;47465;43.094;12.434;2023-04-09T12:33:07;98916.97;;;15.15;49.20
61573;BME280;47465;43.094;12.434;2023-04-09T12:35:36;98929.69;;;15.30;49.33
61573;BME280;47465;43.094;12.434;2023-04-09T12:38:05;98954.47;;;15.35;49.69
61573;BME280;47465;43.094;12.434;2023-04-09T12:41:02;98901.16;;;15.29;49.62
61573;BME280;47465;43.094;12.434;2023-04-09T12:43:40;98915.59;;;14.84;48.78
61573;BME280;47465;43.094;12.434;2023-04-09T12:56:11;98909.38;;;13.47;51.00
61573;BME280;47465;43.094;12.434;2023-04-09T12:59:03;98925.00;;;13.32;50.90
61573;BME280;47465;43.094;12.434;2023-04-09T13:01:31;98938.03;;;14.14;48.59
61573;BME280;47465;43.094;12.434;2023-04-09T13:04:03;98936.81;;;14.45;49.70
61573;BME280;47465;43.094;12.434;2023-04-09T13:06:32;98909.88;;;14.49;48.43
61573;BME280;47465;43.094;12.434;2023-04-09T13:08:58;98889.31;;;14.72;47.37
61573;BME280;47465;43.094;12.434;2023-04-09T13:11:26;98914.00;;;15.21;49.54
61573;BME280;47465;43.094;12.434;2023-04-09T13:13:56;98903.75;;;15.51;47.19
61573;BME280;47465;43.094;12.434;2023-04-09T13:16:22;98884.84;;;15.54;46.52
61573;BME280;47465;43.094;12.434;2023-04-09T13:18:51;98917.81;;;15.56;48.75
61573;BME280;47465;43.094;12.434;2023-04-09T13:21:17;98893.94;;;15.71;47.82
61573;BME280;47465;43.094;12.434;2023-04-09T13:23:51;98886.44;;;15.79;47.02
61573;BME280;47465;43.094;12.434;2023-04-09T13:26:17;98899.66;;;14.81;44.86
61573;BME280;47465;43.094;12.434;2023-04-09T13:28:53;98912.00;;;15.06;44.40
61573;BME280;47465;43.094;12.434;2023-04-09T13:31:22;98879.56;;;15.32;43.86
61573;BME280;47465;43.094;12.434;2023-04-09T13:33:51;98901.94;;;15.52;42.84
61573;BME280;47465;43.094;12.434;2023-04-09T13:36:49;98915.75;;;15.43;44.48
61573;BME280;47465;43.094;12.434;2023-04-09T13:39:22;98922.41;;;14.71;45.11
61573;BME280;47465;43.094;12.434;2023-04-09T13:42:33;98871.91;;;14.39;46.40
61573;BME280;47465;43.094;12.434;2023-04-09T13:45:12;98898.34;;;15.32;44.98
61573;BME280;47465;43.094;12.434;2023-04-09T13:47:38;98871.75;;;14.66;46.15
61573;BME280;47465;43.094;12.434;2023-04-09T13:50:16;98888.41;;;14.51;46.90
61573;BME280;47465;43.094;12.434;2023-04-09T13:53:17;98890.38;;;13.78;47.62
61573;BME280;47465;43.094;12.434;2023-04-09T13:59:17;98931.63;;;12.41;57.51
61573;BME280;47465;43.094;12.434;2023-04-09T14:01:52;98964.16;;;11.94;64.54
61573;BME280;47465;43.094;12.434;2023-04-09T14:04:27;98938.25;;;11.04;69.38
61573;BME280;47465;43.094;12.434;2023-04-09T14:06:59;98978.88;;;11.10;69.29
61573;BME280;47465;43.094;12.434;2023-04-09T14:09:37;99007.69;;;10.93;64.60
61573;BME280;47465;43.094;12.434;2023-04-09T14:15:42;98973.38;;;11.17;64.38
61573;BME280;47465;43.094;12.434;2023-04-09T14:24:19;98947.50;;;11.23;62.41
61573;BME280;47465;43.094;12.434;2023-04-09T14:27:19;98931.28;;;11.31;59.70
61573;BME280;47465;43.094;12.434;2023-04-09T14:30:08;98945.31;;;11.38;58.48
61573;BME280;47465;43.094;12.434;2023-04-09T14:33:16;98923.03;;;11.40;61.67
61573;BME280;47465;43.094;12.434;2023-04-09T14:36:06;98948.38;;;11.55;60.51
61573;BME280;47465;43.094;12.434;2023-04-09T14:41:31;98950.41;;;11.77;59.56
61573;BME280;47465;43.094;12.434;2023-04-09T14:44:10;98939.97;;;12.02;58.95
61573;BME280;47465;43.094;12.434;2023-04-09T14:47:10;98964.47;;;12.43;56.54
61573;BME280;47465;43.094;12.434;2023-04-09T14:51:28;98939.47;;;12.73;56.76
61573;BME280;47465;43.094;12.434;2023-04-09T14:57:03;98908.16;;;12.52;53.86
61573;BME280;47465;43.094;12.434;2023-04-09T15:02:54;98902.50;;;12.35;55.11
61573;BME280;47465;43.094;12.434;2023-04-09T15:12:17;98922.13;;;12.87;51.38
61573;BME280;47465;43.094;12.434;2023-04-09T15:14:58;98908.56;;;12.93;50.99
61573;BME280;47465;43.094;12.434;2023-04-09T15:17:41;98937.34;;;12.83;50.99
61573;BME280;47465;43.094;12.434;2023-04-09T15:20:27;98906.34;;;12.26;52.41
61573;BME280;47465;43.094;12.434;2023-04-09T15:23:01;98944.06;;;12.40;53.74
61573;BME280;47465;43.094;12.434;2023-04-09T15:25:30;98933.69;;;12.59;54.47
61573;BME280;47465;43.094;12.434;2023-04-09T15:28:14;98918.47;;;12.36;53.82
61573;BME280;47465;43.094;12.434;2023-04-09T15:34:29;98915.13;;;12.00;55.35
61573;BME280;47465;43.094;12.434;2023-04-09T15:37:04;98935.16;;;12.13;55.99
61573;BME280;47465;43.094;12.434;2023-04-09T15:40:41;98974.34;;;12.67;55.20
61573;BME280;47465;43.094;12.434;2023-04-09T15:43:51;98925.75;;;12.84;54.03
61573;BME280;47465;43.094;12.434;2023-04-09T15:46:51;98937.34;;;13.10;54.23
61573;BME280;47465;43.094;12.434;2023-04-09T15:53:04;98940.56;;;13.20;53.80
61573;BME280;47465;43.094;12.434;2023-04-09T15:55:51;98889.06;;;13.16;52.29
61573;BME280;47465;43.094;12.434;2023-04-09T15:58:41;98950.59;;;13.13;52.94
61573;BME280;47465;43.094;12.434;2023-04-09T16:01:38;98923.81;;;12.89;53.92
61573;BME280;47465;43.094;12.434;2023-04-09T16:04:23;98935.19;;;12.68;55.36
61573;BME280;47465;43.094;12.434;2023-04-09T16:10:17;98949.47;;;12.93;52.64
61573;BME280;47465;43.094;12.434;2023-04-09T16:13:07;98906.50;;;12.74;50.71
61573;BME280;47465;43.094;12.434;2023-04-09T16:19:09;98932.72;;;13.15;50.99
61573;BME280;47465;43.094;12.434;2023-04-09T16:25:36;98921.34;;;12.83;51.22
61573;BME280;47465;43.094;12.434;2023-04-09T16:45:18;98931.31;;;12.78;43.08